createdAt,value
2024-02-12T00:03:57.878Z,4.90
2024-02-12T00:08:00.388Z,2.77
2024-02-12T00:12:02.836Z,4.13
2024-02-12T00:16:06.508Z,2.10
2024-02-12T00:20:12.436Z,2.83
2024-02-12T00:24:16.343Z,2.63
2024-02-12T00:28:18.217Z,2.03
2024-02-12T00:32:21.728Z,2.60
2024-02-12T00:36:24.437Z,2.87
2024-02-12T00:40:26.709Z,3.77
2024-02-12T00:44:28.741Z,5.57
2024-02-12T00:48:33.009Z,3.27
2024-02-12T00:52:37.089Z,3.90
2024-02-12T00:56:45.966Z,3.50
2024-02-12T01:00:48.008Z,4.43
2024-02-12T01:04:51.208Z,5.33
2024-02-12T01:08:53.803Z,3.13
2024-02-12T01:12:55.892Z,2.63
2024-02-12T01:16:58.083Z,2.60
2024-02-12T01:21:00.856Z,2.83
2024-02-12T01:25:05.835Z,2.83
2024-02-12T01:29:07.900Z,2.40
2024-02-12T01:33:10.111Z,2.23
2024-02-12T01:37:12.571Z,2.40
2024-02-12T01:41:17.876Z,2.40
2024-02-12T01:45:28.372Z,2.20
2024-02-12T01:49:30.849Z,1.90
2024-02-12T01:53:39.129Z,2.00
2024-02-12T01:57:41.192Z,1.70
2024-02-12T02:01:44.798Z,2.17
2024-02-12T02:05:47.210Z,1.70
2024-02-12T02:09:51.880Z,2.40
2024-02-12T02:13:54.913Z,1.90
2024-02-12T02:17:57.186Z,1.83
2024-02-12T02:21:59.314Z,1.70
2024-02-12T02:26:01.822Z,1.67
2024-02-12T02:30:09.196Z,1.87
2024-02-12T02:34:11.577Z,2.10
2024-02-12T02:38:14.295Z,1.73
2024-02-12T02:42:16.445Z,1.83
2024-02-12T02:46:27.990Z,1.50
2024-02-12T02:50:31.615Z,1.43
2024-02-12T02:54:34.930Z,1.50
2024-02-12T02:58:38.082Z,1.50
2024-02-12T03:02:43.024Z,1.50
2024-02-12T03:06:45.588Z,1.60
2024-02-12T03:10:47.775Z,1.50
2024-02-12T03:14:50.676Z,1.40
2024-02-12T03:18:53.850Z,1.50
2024-02-12T03:22:56.465Z,1.60
2024-02-12T03:26:59.496Z,1.33
2024-02-12T03:31:01.714Z,1.43
2024-02-12T03:35:04.046Z,1.57
2024-02-12T03:39:08.379Z,1.33
2024-02-12T03:43:11.641Z,1.33
2024-02-12T03:47:13.729Z,1.40
2024-02-12T03:51:34.417Z,1.50
2024-02-12T03:55:55.054Z,1.67
2024-02-12T03:59:57.117Z,1.63
2024-02-12T04:04:00.507Z,1.60
2024-02-12T04:08:06.062Z,1.57
2024-02-12T04:12:12.403Z,1.40
2024-02-12T04:16:15.921Z,1.50
2024-02-12T04:20:19.677Z,1.40
2024-02-12T04:24:22.440Z,1.30
2024-02-12T04:28:24.327Z,1.50
2024-02-12T04:32:27.077Z,1.80
2024-02-12T04:36:29.040Z,1.50
2024-02-12T04:40:31.465Z,1.50
2024-02-12T04:44:34.187Z,1.60
2024-02-12T04:48:36.555Z,1.30
2024-02-12T04:52:39.384Z,1.40
2024-02-12T04:56:42.318Z,1.67
2024-02-12T05:00:44.488Z,1.40
2024-02-12T05:04:46.529Z,2.07
2024-02-12T05:08:48.734Z,1.57
2024-02-12T05:12:51.683Z,1.50
2024-02-12T05:17:00.582Z,1.50
2024-02-12T05:21:21.064Z,1.57
2024-02-12T05:25:23.139Z,1.47
2024-02-12T05:29:25.729Z,1.37
2024-02-12T05:33:27.758Z,1.40
2024-02-12T05:37:29.828Z,1.23
2024-02-12T05:41:31.908Z,1.30
2024-02-12T05:45:34.044Z,1.20
2024-02-12T05:49:36.104Z,1.60
2024-02-12T05:53:38.447Z,1.57
2024-02-12T05:57:40.436Z,1.40
2024-02-12T06:01:42.520Z,1.23
2024-02-12T06:05:44.576Z,1.40
2024-02-12T06:09:46.771Z,1.30
2024-02-12T06:13:48.645Z,1.47
2024-02-12T06:17:51.235Z,2.80
2024-02-12T06:21:53.330Z,2.20
2024-02-12T06:25:55.920Z,1.77
2024-02-12T06:29:58.886Z,1.50
2024-02-12T06:34:00.997Z,1.10
2024-02-12T06:38:05.284Z,1.20
2024-02-12T06:42:07.486Z,1.20
2024-02-12T06:46:09.636Z,1.20
2024-02-12T06:50:13.526Z,1.20
2024-02-12T06:54:15.556Z,1.50
2024-02-12T06:58:17.594Z,1.27
2024-02-12T07:02:20.372Z,1.57
2024-02-12T07:06:23.189Z,2.77
2024-02-12T07:10:25.181Z,1.90
2024-02-12T07:14:28.463Z,2.63
2024-02-12T07:18:30.551Z,2.50
2024-02-12T07:22:32.901Z,3.60
2024-02-12T07:26:34.969Z,2.77
2024-02-12T07:30:36.918Z,3.03
2024-02-12T07:34:39.114Z,2.73
2024-02-12T07:38:41.587Z,4.27
2024-02-12T07:42:43.871Z,3.20
2024-02-12T07:46:48.086Z,3.87
2024-02-12T07:50:53.201Z,4.40
2024-02-12T07:54:55.388Z,13.23
2024-02-12T07:58:57.499Z,7.37
2024-02-12T08:02:59.918Z,3.93
2024-02-12T08:07:02.066Z,3.60
2024-02-12T08:11:04.377Z,3.67
2024-02-12T08:15:07.533Z,5.30
2024-02-12T08:19:09.687Z,12.43
2024-02-12T08:23:11.887Z,3.50
2024-02-12T08:27:13.999Z,8.63
2024-02-12T08:31:18.849Z,4.90
2024-02-12T08:35:22.145Z,7.63
2024-02-12T08:39:24.370Z,4.40
2024-02-12T08:43:26.316Z,4.03
2024-02-12T08:47:31.375Z,4.97
2024-02-12T08:51:34.539Z,4.60
2024-02-12T08:55:38.522Z,3.10
2024-02-12T08:59:43.142Z,2.30
2024-02-12T09:03:46.495Z,2.63
2024-02-12T09:07:48.606Z,2.33
2024-02-12T09:11:50.436Z,2.40
2024-02-12T09:15:52.398Z,2.20
2024-02-12T09:19:54.651Z,2.00
2024-02-12T09:23:56.703Z,2.50
2024-02-12T09:28:01.072Z,2.70
2024-02-12T09:32:05.759Z,4.73
2024-02-12T09:36:08.208Z,2.10
2024-02-12T09:40:12.516Z,2.60
2024-02-12T09:44:22.999Z,3.60
2024-02-12T09:48:26.419Z,2.23
2024-02-12T09:52:29.433Z,2.90
2024-02-12T09:56:33.011Z,2.17
2024-02-12T10:00:35.662Z,2.30
2024-02-12T10:04:39.598Z,2.17
2024-02-12T10:08:41.841Z,3.93
2024-02-12T10:12:44.279Z,2.50
2024-02-12T10:16:46.271Z,2.20
2024-02-12T10:20:50.237Z,2.90
2024-02-12T10:24:52.689Z,3.43
2024-02-12T10:28:56.255Z,2.40
2024-02-12T10:33:06.638Z,2.10
2024-02-12T10:37:11.086Z,1.70
2024-02-12T10:41:23.185Z,5.33
2024-02-12T10:45:25.385Z,2.10
2024-02-12T10:49:28.090Z,1.90
2024-02-12T10:53:33.405Z,1.90
2024-02-12T10:57:35.446Z,1.90
2024-02-12T11:01:40.410Z,2.20
2024-02-12T11:05:44.479Z,1.97
2024-02-12T11:10:04.576Z,2.80
2024-02-12T11:14:10.547Z,2.30
2024-02-12T11:18:14.404Z,1.80
2024-02-12T11:22:29.281Z,2.40
2024-02-12T11:26:35.151Z,3.70
2024-02-12T11:30:42.455Z,2.07
2024-02-12T11:34:45.583Z,2.17
2024-02-12T11:38:53.960Z,3.50
2024-02-12T11:42:56.105Z,2.13
2024-02-12T11:47:01.926Z,2.00
2024-02-12T11:51:04.772Z,2.73
2024-02-12T11:55:08.488Z,1.80
2024-02-12T11:59:12.279Z,1.90
2024-02-12T12:03:15.734Z,2.27
2024-02-12T12:07:17.858Z,2.30
2024-02-12T12:11:22.210Z,2.40
2024-02-12T12:15:24.354Z,2.60
2024-02-12T12:19:26.535Z,2.23
2024-02-12T12:23:28.878Z,6.20
2024-02-12T12:27:32.121Z,1.77
2024-02-12T12:31:36.109Z,2.10
2024-02-12T12:35:38.311Z,1.60
2024-02-12T12:39:41.319Z,2.10
2024-02-12T12:43:43.691Z,1.87
2024-02-12T12:47:47.542Z,2.30
2024-02-12T12:51:49.651Z,2.10
2024-02-12T12:55:51.553Z,2.37
2024-02-12T12:59:55.164Z,2.00
2024-02-12T13:03:57.439Z,2.97
2024-02-12T13:08:17.771Z,4.70
2024-02-12T13:12:22.720Z,1.80
2024-02-12T13:16:26.188Z,1.30
2024-02-12T13:20:28.572Z,1.40
2024-02-12T13:24:30.698Z,1.97
2024-02-12T13:28:32.576Z,1.67
2024-02-12T13:32:34.694Z,1.93
2024-02-12T13:36:37.497Z,1.30
2024-02-12T13:40:40.697Z,1.60
2024-02-12T13:44:42.859Z,1.30
2024-02-12T13:48:47.286Z,1.53
2024-02-12T13:52:49.882Z,1.70
2024-02-12T13:56:52.095Z,1.80
2024-02-12T14:01:09.877Z,1.40
2024-02-12T14:05:19.118Z,1.70
2024-02-12T14:09:26.295Z,1.20
2024-02-12T14:13:28.414Z,3.40
2024-02-12T14:17:30.548Z,1.10
2024-02-12T14:21:32.517Z,1.10
2024-02-12T14:25:34.963Z,2.30
2024-02-12T14:29:36.969Z,1.83
2024-02-12T14:33:40.759Z,2.47
2024-02-12T14:37:43.766Z,4.90
2024-02-12T14:41:46.073Z,3.20
2024-02-12T14:45:48.306Z,9.53
2024-02-12T14:49:50.279Z,4.10
2024-02-12T14:53:52.381Z,5.10
2024-02-12T14:57:55.064Z,1.33
2024-02-12T15:01:59.339Z,1.40
2024-02-12T15:06:01.507Z,13.83
2024-02-12T15:10:04.501Z,1.30
2024-02-12T15:14:06.498Z,3.13
2024-02-12T15:18:13.402Z,1.50
2024-02-12T15:22:23.575Z,1.20
2024-02-12T15:26:25.828Z,1.90
2024-02-12T15:30:28.240Z,1.90
2024-02-12T15:34:31.849Z,2.80
2024-02-12T15:38:34.520Z,2.17
2024-02-12T15:42:36.404Z,1.30
2024-02-12T15:46:38.466Z,1.00
2024-02-12T15:50:40.754Z,2.80
2024-02-12T15:54:50.362Z,2.90
2024-02-12T15:58:53.526Z,2.00
2024-02-12T16:02:57.588Z,1.80
2024-02-12T16:07:00.115Z,1.27
2024-02-12T16:11:02.115Z,1.50
2024-02-12T16:15:05.950Z,1.33
2024-02-12T16:19:07.954Z,2.80
2024-02-12T16:23:11.022Z,1.67
2024-02-12T16:27:13.676Z,1.83
2024-02-12T16:31:16.046Z,1.53
2024-02-12T16:35:20.985Z,5.20
2024-02-12T16:39:23.355Z,4.13
2024-02-12T16:43:25.424Z,2.80
2024-02-12T16:47:27.518Z,2.90
2024-02-12T16:51:29.396Z,3.30
2024-02-12T16:55:32.576Z,2.30
2024-02-12T16:59:34.630Z,1.90
2024-02-12T17:03:36.974Z,2.70
2024-02-12T17:07:49.514Z,3.97
2024-02-12T17:12:00.232Z,4.67
2024-02-12T17:16:02.247Z,4.53
2024-02-12T17:20:07.512Z,5.63
2024-02-12T17:24:10.157Z,6.57
2024-02-12T17:28:12.004Z,7.83
2024-02-12T17:32:13.994Z,9.50
2024-02-12T17:36:16.775Z,10.73
2024-02-12T17:40:19.190Z,2.77
2024-02-12T17:44:22.014Z,2.53
2024-02-12T17:48:25.395Z,5.93
2024-02-12T17:52:32.338Z,3.30
2024-02-12T17:56:35.484Z,7.63
2024-02-12T18:00:41.879Z,15.67
2024-02-12T18:04:44.274Z,16.63
2024-02-12T18:08:46.365Z,7.80
2024-02-12T18:12:48.458Z,11.00
2024-02-12T18:16:50.544Z,14.33
2024-02-12T18:20:52.662Z,9.63
2024-02-12T18:24:55.069Z,6.00
2024-02-12T18:28:57.871Z,10.43
2024-02-12T18:33:01.149Z,8.67
2024-02-12T18:37:04.639Z,5.97
2024-02-12T18:41:11.231Z,4.60
2024-02-12T18:45:17.542Z,5.33
2024-02-12T18:49:19.959Z,4.50
2024-02-12T18:53:23.729Z,3.50
2024-02-12T18:57:25.809Z,4.50
2024-02-12T19:01:28.226Z,7.37
2024-02-12T19:05:30.577Z,7.27
2024-02-12T19:09:33.142Z,7.83
2024-02-12T19:13:35.801Z,5.60
2024-02-12T19:17:38.555Z,17.97
2024-02-12T19:21:42.024Z,11.93
2024-02-12T19:25:45.159Z,4.60
2024-02-12T19:29:47.145Z,6.17
2024-02-12T19:33:49.102Z,6.37
2024-02-12T19:37:51.161Z,6.20
2024-02-12T19:41:53.444Z,6.17
2024-02-12T19:45:56.279Z,4.40
2024-02-12T19:49:58.538Z,3.53
2024-02-12T19:54:02.031Z,3.20
2024-02-12T19:58:07.038Z,4.07
2024-02-12T20:02:10.692Z,4.37
2024-02-12T20:06:15.361Z,4.70
2024-02-12T20:10:17.677Z,4.60
2024-02-12T20:14:19.748Z,5.20
2024-02-12T20:18:24.082Z,6.00
2024-02-12T20:22:26.212Z,5.47
2024-02-12T20:26:28.237Z,5.90
2024-02-12T20:30:30.581Z,5.00
2024-02-12T20:34:34.751Z,4.00
2024-02-12T20:38:36.896Z,3.40
2024-02-12T20:42:39.456Z,3.57
2024-02-12T20:46:41.938Z,3.27
2024-02-12T20:50:44.404Z,3.40
2024-02-12T20:54:47.705Z,5.20
2024-02-12T20:58:49.800Z,5.93
2024-02-12T21:02:53.233Z,5.30
2024-02-12T21:06:55.374Z,6.47
2024-02-12T21:10:57.592Z,9.77
2024-02-12T21:15:01.553Z,9.37
2024-02-12T21:19:03.671Z,9.37
2024-02-12T21:23:07.204Z,8.00
2024-02-12T21:27:14.673Z,13.50
2024-02-12T21:31:20.792Z,22.60
2024-02-12T21:35:23.672Z,15.77
2024-02-12T21:39:35.292Z,11.53
2024-02-12T21:43:41.386Z,12.43
2024-02-12T21:47:43.837Z,15.20
2024-02-12T21:51:46.493Z,12.40
2024-02-12T21:55:48.424Z,11.03
2024-02-12T21:59:52.534Z,20.13
2024-02-12T22:03:55.272Z,9.00
2024-02-12T22:07:57.629Z,5.00
2024-02-12T22:11:59.636Z,36.30
2024-02-12T22:16:01.728Z,17.83
2024-02-12T22:20:04.190Z,16.27
2024-02-12T22:24:06.358Z,14.20
2024-02-12T22:28:08.937Z,10.43
2024-02-12T22:32:10.938Z,5.00
2024-02-12T22:36:15.277Z,31.07
2024-02-12T22:40:17.426Z,17.10
2024-02-12T22:44:19.850Z,18.03
2024-02-12T22:48:22.065Z,4.30
2024-02-12T22:52:26.040Z,4.40
2024-02-12T22:56:28.619Z,9.27
2024-02-12T23:00:36.767Z,24.37
2024-02-12T23:04:40.990Z,11.07
2024-02-12T23:08:44.345Z,12.57
2024-02-12T23:12:46.673Z,8.33
2024-02-12T23:16:48.646Z,7.00
2024-02-12T23:20:51.655Z,6.13
2024-02-12T23:24:53.709Z,4.57
2024-02-12T23:28:57.859Z,4.70
2024-02-12T23:33:01.753Z,5.13
2024-02-12T23:37:03.774Z,4.87
2024-02-12T23:41:06.998Z,5.00
2024-02-12T23:45:15.769Z,4.50
2024-02-12T23:49:17.958Z,4.63
2024-02-12T23:53:20.052Z,4.50
2024-02-12T23:57:22.516Z,4.60
